createdAt,value
2023-02-23T00:02:10.704Z,11.60
2023-02-23T00:04:39.386Z,15.13
2023-02-23T00:07:08.114Z,10.53
2023-02-23T00:09:36.415Z,9.77
2023-02-23T00:12:08.664Z,7.97
2023-02-23T00:14:38.734Z,11.00
2023-02-23T00:17:14.236Z,12.20
2023-02-23T00:19:44.332Z,9.07
2023-02-23T00:22:13.432Z,11.30
2023-02-23T00:24:42.597Z,13.23
2023-02-23T00:27:17.552Z,10.97
2023-02-23T00:29:49.460Z,9.73
2023-02-23T00:32:20.082Z,8.97
2023-02-23T00:34:50.482Z,8.17
2023-02-23T00:37:19.053Z,11.77
2023-02-23T00:39:47.468Z,11.93
2023-02-23T00:42:16.031Z,9.40
2023-02-23T00:44:44.223Z,12.27
2023-02-23T00:47:12.949Z,14.57
2023-02-23T00:49:41.202Z,11.70
2023-02-23T00:52:11.116Z,10.97
2023-02-23T00:54:39.572Z,9.97
2023-02-23T00:57:08.110Z,12.43
2023-02-23T00:59:36.931Z,10.97
2023-02-23T01:02:05.542Z,9.23
2023-02-23T01:04:33.785Z,8.20
2023-02-23T01:07:04.246Z,10.60
2023-02-23T01:09:34.505Z,8.07
2023-02-23T01:12:07.330Z,12.90
2023-02-23T01:14:37.606Z,8.67
2023-02-23T01:17:07.473Z,10.50
2023-02-23T01:19:35.757Z,12.23
2023-02-23T01:22:04.433Z,14.23
2023-02-23T01:24:33.931Z,13.67
2023-02-23T01:27:02.606Z,7.57
2023-02-23T01:29:30.849Z,12.17
2023-02-23T01:31:59.529Z,11.87
2023-02-23T01:34:28.286Z,14.57
2023-02-23T01:36:56.826Z,11.03
2023-02-23T01:39:25.122Z,10.53
2023-02-23T01:41:56.369Z,10.80
2023-02-23T01:45:01.854Z,9.77
2023-02-23T01:47:30.434Z,19.30
2023-02-23T01:49:58.943Z,10.40
2023-02-23T01:52:27.601Z,8.13
2023-02-23T01:54:56.732Z,12.23
2023-02-23T01:57:27.099Z,10.23
2023-02-23T01:59:55.943Z,15.87
2023-02-23T02:02:33.664Z,9.20
2023-02-23T02:05:14.211Z,12.73
2023-02-23T02:07:47.697Z,12.30
2023-02-23T02:10:39.144Z,12.00
2023-02-23T02:13:14.364Z,12.57
2023-02-23T02:16:13.094Z,9.57
2023-02-23T02:18:56.497Z,10.17
2023-02-23T02:22:05.898Z,13.20
2023-02-23T02:25:12.045Z,14.07
2023-02-23T02:28:04.149Z,12.03
2023-02-23T02:30:57.656Z,13.57
2023-02-23T02:34:00.412Z,10.67
2023-02-23T02:37:14.611Z,9.53
2023-02-23T02:39:53.709Z,9.40
2023-02-23T02:42:30.465Z,12.53
2023-02-23T02:45:04.562Z,10.43
2023-02-23T02:47:44.382Z,10.20
2023-02-23T02:50:18.290Z,14.47
2023-02-23T02:52:55.316Z,16.77
2023-02-23T02:55:27.793Z,13.23
2023-02-23T02:57:59.523Z,15.43
2023-02-23T03:00:50.744Z,13.80
2023-02-23T03:03:48.049Z,19.00
2023-02-23T03:06:34.505Z,9.73
2023-02-23T03:09:30.071Z,20.97
2023-02-23T03:12:25.214Z,13.73
2023-02-23T03:15:22.844Z,16.37
2023-02-23T03:18:13.940Z,17.23
2023-02-23T03:21:06.654Z,12.80
2023-02-23T03:24:03.117Z,16.30
2023-02-23T03:26:56.252Z,25.20
2023-02-23T03:29:49.715Z,17.63
2023-02-23T03:32:41.694Z,14.33
2023-02-23T03:35:32.484Z,17.33
2023-02-23T03:38:24.034Z,20.20
2023-02-23T03:41:11.101Z,18.37
2023-02-23T03:44:04.930Z,25.30
2023-02-23T03:46:52.080Z,14.00
2023-02-23T03:49:40.612Z,15.33
2023-02-23T03:52:30.657Z,14.40
2023-02-23T03:55:20.495Z,20.00
2023-02-23T03:58:10.797Z,13.73
2023-02-23T04:01:03.431Z,14.37
2023-02-23T04:03:52.298Z,19.17
2023-02-23T04:06:42.752Z,14.90
2023-02-23T04:09:29.746Z,18.80
2023-02-23T04:12:19.687Z,11.37
2023-02-23T04:14:56.112Z,16.93
2023-02-23T04:17:34.108Z,12.00
2023-02-23T04:20:03.131Z,12.37
2023-02-23T04:22:31.842Z,15.57
2023-02-23T04:25:00.109Z,15.63
2023-02-23T04:27:28.659Z,13.47
2023-02-23T04:29:56.917Z,19.40
2023-02-23T04:32:26.839Z,11.47
2023-02-23T04:34:55.313Z,11.87
2023-02-23T04:37:24.041Z,15.00
2023-02-23T04:39:52.230Z,15.97
2023-02-23T04:42:20.959Z,15.93
2023-02-23T04:44:49.553Z,15.27
2023-02-23T04:47:18.390Z,17.17
2023-02-23T04:49:48.046Z,20.10
2023-02-23T04:52:16.551Z,18.80
2023-02-23T04:54:45.100Z,18.53
2023-02-23T04:57:13.699Z,13.43
2023-02-23T04:59:42.484Z,17.50
2023-02-23T05:02:11.929Z,14.30
2023-02-23T05:04:40.263Z,17.73
2023-02-23T05:07:10.129Z,14.23
2023-02-23T05:09:38.398Z,20.00
2023-02-23T05:12:07.203Z,13.10
2023-02-23T05:14:35.548Z,20.67
2023-02-23T05:17:04.007Z,12.30
2023-02-23T05:19:32.170Z,12.33
2023-02-23T05:22:00.672Z,12.33
2023-02-23T05:24:30.216Z,17.63
2023-02-23T05:26:58.901Z,21.00
2023-02-23T05:29:27.118Z,19.13
2023-02-23T05:31:55.859Z,18.33
2023-02-23T05:34:24.165Z,17.27
2023-02-23T05:36:53.061Z,18.13
2023-02-23T05:39:21.411Z,14.87
2023-02-23T05:41:51.250Z,14.50
2023-02-23T05:44:19.604Z,11.30
2023-02-23T05:46:48.478Z,18.70
2023-02-23T05:49:18.603Z,15.70
2023-02-23T05:51:47.092Z,11.93
2023-02-23T05:54:15.355Z,22.67
2023-02-23T05:56:44.033Z,17.10
2023-02-23T05:59:14.170Z,15.33
2023-02-23T06:01:42.745Z,17.17
2023-02-23T06:04:11.151Z,12.47
2023-02-23T06:06:40.125Z,15.23
2023-02-23T06:09:08.417Z,21.43
2023-02-23T06:11:37.087Z,13.63
2023-02-23T06:14:05.428Z,18.37
2023-02-23T06:16:35.376Z,19.47
2023-02-23T06:19:03.648Z,21.60
2023-02-23T06:21:32.177Z,21.10
2023-02-23T06:24:00.963Z,17.20
2023-02-23T06:26:30.209Z,16.13
2023-02-23T06:28:58.494Z,22.93
2023-02-23T06:31:27.040Z,20.50
2023-02-23T06:33:56.567Z,20.03
2023-02-23T06:36:25.166Z,21.80
2023-02-23T06:38:56.591Z,28.70
2023-02-23T06:41:25.619Z,22.70
2023-02-23T06:43:53.994Z,31.33
2023-02-23T06:46:23.089Z,35.97
2023-02-23T06:48:51.676Z,22.53
2023-02-23T06:51:21.731Z,27.33
2023-02-23T06:53:52.545Z,28.97
2023-02-23T06:56:21.266Z,35.80
2023-02-23T06:58:49.919Z,25.00
2023-02-23T07:01:19.682Z,20.73
2023-02-23T07:03:48.427Z,27.63
2023-02-23T07:06:17.090Z,28.33
2023-02-23T07:08:46.707Z,27.83
2023-02-23T07:11:17.038Z,31.80
2023-02-23T07:13:45.614Z,28.10
2023-02-23T07:16:16.257Z,22.87
2023-02-23T07:18:44.609Z,19.77
2023-02-23T07:21:13.484Z,14.60
2023-02-23T07:23:41.668Z,18.13
2023-02-23T07:26:16.281Z,29.63
2023-02-23T07:28:48.389Z,28.07
2023-02-23T07:31:17.193Z,25.97
2023-02-23T07:33:45.548Z,32.47
2023-02-23T07:36:14.297Z,23.73
2023-02-23T07:38:42.513Z,20.07
2023-02-23T07:41:12.418Z,18.80
2023-02-23T07:43:41.084Z,21.03
2023-02-23T07:46:10.076Z,22.37
2023-02-23T07:48:38.565Z,17.30
2023-02-23T07:51:11.140Z,19.83
2023-02-23T07:53:39.532Z,16.30
2023-02-23T07:56:10.963Z,16.10
2023-02-23T07:58:41.900Z,15.57
2023-02-23T08:01:12.331Z,16.77
2023-02-23T08:03:40.917Z,20.37
2023-02-23T08:06:09.542Z,19.20
2023-02-23T08:08:37.817Z,21.70
2023-02-23T08:11:08.808Z,24.30
2023-02-23T08:13:38.275Z,14.10
2023-02-23T08:16:09.379Z,19.03
2023-02-23T08:18:37.856Z,20.17
2023-02-23T08:21:06.919Z,16.27
2023-02-23T08:23:35.637Z,18.90
2023-02-23T08:26:05.266Z,13.93
2023-02-23T08:28:33.725Z,22.17
2023-02-23T08:31:02.329Z,15.00
2023-02-23T08:33:33.063Z,18.17
2023-02-23T08:36:02.843Z,17.30
2023-02-23T08:38:31.435Z,14.37
2023-02-23T08:41:01.618Z,20.47
2023-02-23T08:43:30.030Z,20.97
2023-02-23T08:45:58.843Z,18.37
2023-02-23T08:48:27.314Z,17.40
2023-02-23T08:51:00.079Z,15.13
2023-02-23T08:53:29.844Z,19.40
2023-02-23T08:55:59.461Z,15.43
2023-02-23T08:58:27.779Z,18.43
2023-02-23T09:00:56.706Z,19.43
2023-02-23T09:03:26.333Z,16.17
2023-02-23T09:05:54.947Z,18.00
2023-02-23T09:08:25.239Z,12.30
2023-02-23T09:10:53.729Z,13.80
2023-02-23T09:13:22.030Z,17.00
2023-02-23T09:15:50.650Z,16.33
2023-02-23T09:18:19.328Z,15.67
2023-02-23T09:20:47.888Z,19.10
2023-02-23T09:23:16.096Z,15.53
2023-02-23T09:25:46.936Z,16.23
2023-02-23T09:28:17.742Z,11.37
2023-02-23T09:30:48.287Z,12.57
2023-02-23T09:33:17.292Z,12.50
2023-02-23T09:35:45.923Z,13.23
2023-02-23T09:38:14.219Z,14.03
2023-02-23T09:40:49.779Z,18.43
2023-02-23T09:43:24.280Z,11.37
2023-02-23T09:45:57.551Z,15.97
2023-02-23T09:48:28.863Z,16.23
2023-02-23T09:50:58.846Z,16.13
2023-02-23T09:53:40.432Z,11.37
2023-02-23T09:56:17.741Z,12.37
2023-02-23T09:58:46.137Z,11.40
2023-02-23T10:01:41.049Z,12.27
2023-02-23T10:04:16.047Z,11.17
2023-02-23T10:06:51.167Z,15.93
2023-02-23T10:09:28.657Z,14.13
2023-02-23T10:12:08.544Z,16.30
2023-02-23T10:14:56.338Z,13.90
2023-02-23T10:17:33.659Z,11.55
2023-02-23T10:20:12.932Z,12.33
2023-02-23T10:22:43.566Z,11.90
2023-02-23T10:25:14.421Z,24.33
2023-02-23T10:28:04.248Z,12.77
2023-02-23T10:30:34.964Z,14.68
2023-02-23T10:33:14.562Z,23.73
2023-02-23T10:35:42.897Z,11.70
2023-02-23T10:38:16.143Z,13.77
2023-02-23T10:40:47.550Z,19.97
2023-02-23T10:43:17.779Z,16.33
2023-02-23T10:45:48.423Z,16.73
2023-02-23T10:48:20.639Z,15.20
2023-02-23T10:50:51.071Z,11.60
2023-02-23T10:53:24.405Z,13.33
2023-02-23T10:56:06.048Z,18.65
2023-02-23T10:58:46.487Z,13.45
2023-02-23T11:01:16.209Z,14.55
2023-02-23T11:04:06.237Z,15.68
2023-02-23T11:06:39.641Z,13.20
2023-02-23T11:09:33.045Z,13.65
2023-02-23T11:12:21.797Z,12.93
2023-02-23T11:14:53.756Z,18.63
2023-02-23T11:17:31.837Z,18.92
2023-02-23T11:20:06.769Z,16.17
2023-02-23T11:22:37.117Z,16.93
2023-02-23T11:25:18.325Z,10.63
2023-02-23T11:27:51.631Z,21.10
2023-02-23T11:30:25.349Z,15.50
2023-02-23T11:32:55.741Z,17.03
2023-02-23T11:35:30.843Z,15.95
2023-02-23T11:37:59.370Z,16.98
2023-02-23T11:40:32.065Z,17.40
2023-02-23T11:43:09.210Z,10.80
2023-02-23T11:45:47.706Z,17.73
2023-02-23T11:48:23.394Z,13.98
2023-02-23T11:50:53.328Z,21.48
2023-02-23T11:53:32.939Z,17.48
2023-02-23T11:56:08.041Z,17.93
2023-02-23T11:58:40.667Z,13.80
2023-02-23T12:01:13.822Z,12.27
2023-02-23T12:03:48.297Z,15.07
2023-02-23T12:06:30.612Z,16.00
2023-02-23T12:09:05.361Z,13.23
2023-02-23T12:11:38.688Z,12.70
2023-02-23T12:14:13.578Z,12.63
2023-02-23T12:16:48.133Z,13.57
2023-02-23T12:19:26.372Z,15.18
2023-02-23T12:22:01.759Z,17.20
2023-02-23T12:24:40.345Z,12.43
2023-02-23T12:27:14.634Z,15.00
2023-02-23T12:29:52.511Z,20.27
2023-02-23T12:32:27.513Z,14.77
2023-02-23T12:34:59.716Z,12.30
2023-02-23T12:37:38.752Z,16.80
2023-02-23T12:40:16.640Z,17.00
2023-02-23T12:43:03.460Z,10.13
2023-02-23T12:45:38.310Z,13.05
2023-02-23T12:48:16.786Z,12.82
2023-02-23T12:50:51.908Z,20.35
2023-02-23T12:53:24.458Z,11.82
2023-02-23T12:56:08.177Z,16.13
2023-02-23T12:58:42.281Z,18.13
2023-02-23T13:01:14.649Z,15.13
2023-02-23T13:04:07.406Z,23.05
2023-02-23T13:06:45.205Z,20.60
2023-02-23T13:09:29.187Z,16.35
2023-02-23T13:12:30.377Z,15.85
2023-02-23T13:15:09.890Z,23.63
2023-02-23T13:17:43.146Z,18.65
2023-02-23T13:20:19.347Z,17.77
2023-02-23T13:22:51.592Z,18.48
2023-02-23T13:25:30.409Z,17.17
2023-02-23T13:28:01.181Z,15.60
2023-02-23T13:30:33.209Z,22.50
2023-02-23T13:33:06.808Z,14.60
2023-02-23T13:35:38.453Z,18.05
2023-02-23T13:38:17.238Z,15.93
2023-02-23T13:40:50.729Z,16.15
2023-02-23T13:43:29.717Z,16.80
2023-02-23T13:46:15.759Z,19.07
2023-02-23T13:48:57.546Z,18.73
2023-02-23T13:51:38.676Z,17.33
2023-02-23T13:54:24.295Z,19.92
2023-02-23T13:56:56.879Z,19.52
2023-02-23T13:59:29.426Z,17.13
2023-02-23T14:02:01.786Z,19.35
2023-02-23T14:04:36.190Z,26.10
2023-02-23T14:07:19.840Z,29.17
2023-02-23T14:09:54.898Z,16.17
2023-02-23T14:12:27.762Z,20.17
2023-02-23T14:14:56.181Z,19.40
2023-02-23T14:17:42.474Z,19.57
2023-02-23T14:20:30.062Z,24.93
2023-02-23T14:23:41.780Z,19.98
2023-02-23T14:26:15.356Z,22.00
2023-02-23T14:28:45.867Z,20.25
2023-02-23T14:31:23.827Z,20.67
2023-02-23T14:34:00.843Z,20.97
2023-02-23T14:36:44.461Z,22.33
2023-02-23T14:39:21.064Z,19.17
2023-02-23T14:41:55.883Z,18.03
2023-02-23T14:44:30.811Z,25.33
2023-02-23T14:47:04.347Z,19.53
2023-02-23T14:49:37.838Z,14.03
2023-02-23T14:52:09.409Z,20.00
2023-02-23T14:54:40.125Z,24.57
2023-02-23T14:57:19.524Z,21.57
2023-02-23T14:59:58.799Z,28.83
2023-02-23T15:02:29.784Z,17.80
2023-02-23T15:04:59.938Z,24.93
2023-02-23T15:07:35.935Z,22.37
2023-02-23T15:10:11.046Z,23.07
2023-02-23T15:12:40.776Z,22.57
2023-02-23T15:15:26.434Z,29.23
2023-02-23T15:17:56.786Z,27.53
2023-02-23T15:23:04.290Z,27.63
2023-02-23T15:25:39.019Z,29.80
2023-02-23T15:28:22.670Z,20.83
2023-02-23T15:30:53.986Z,21.43
2023-02-23T15:33:28.654Z,30.10
2023-02-23T15:36:05.057Z,25.13
2023-02-23T15:38:43.568Z,31.47
2023-02-23T15:41:23.199Z,23.60
2023-02-23T15:43:53.165Z,26.87
2023-02-23T15:46:26.110Z,26.30
2023-02-23T15:48:59.339Z,25.50
2023-02-23T15:51:35.457Z,27.07
2023-02-23T15:54:13.678Z,27.97
2023-02-23T15:56:46.829Z,29.10
2023-02-23T15:59:24.005Z,26.73
2023-02-23T16:01:55.536Z,29.07
2023-02-23T16:04:29.975Z,34.97
2023-02-23T16:07:11.709Z,20.77
2023-02-23T16:09:40.750Z,28.63
2023-02-23T16:12:13.861Z,29.23
2023-02-23T16:14:50.159Z,31.37
2023-02-23T16:17:26.602Z,28.53
2023-02-23T16:19:57.653Z,26.93
2023-02-23T16:22:28.854Z,23.97
2023-02-23T16:25:05.087Z,24.20
2023-02-23T16:27:33.791Z,32.10
2023-02-23T16:30:17.169Z,29.77
2023-02-23T16:32:46.646Z,24.80
2023-02-23T16:35:20.114Z,25.27
2023-02-23T16:37:58.228Z,28.90
2023-02-23T16:40:26.608Z,24.63
2023-02-23T16:42:59.323Z,27.10
2023-02-23T16:45:29.771Z,25.50
2023-02-23T16:48:04.233Z,25.43
2023-02-23T16:50:33.839Z,35.50
2023-02-23T16:53:03.540Z,26.57
2023-02-23T16:55:39.423Z,31.50
2023-02-23T16:58:11.901Z,28.33
2023-02-23T17:00:41.666Z,21.30
2023-02-23T17:03:17.043Z,23.37
2023-02-23T17:05:45.630Z,33.67
2023-02-23T17:08:14.200Z,27.27
2023-02-23T17:10:43.315Z,28.13
2023-02-23T17:13:18.150Z,29.63
2023-02-23T17:15:51.916Z,33.77
2023-02-23T17:20:59.451Z,32.73
2023-02-23T17:23:39.071Z,26.57
2023-02-23T17:26:08.985Z,24.53
2023-02-23T17:28:38.094Z,28.37
2023-02-23T17:31:08.940Z,36.90
2023-02-23T17:33:37.770Z,27.70
2023-02-23T17:36:09.827Z,29.40
2023-02-23T17:38:38.611Z,33.00
2023-02-23T17:41:09.183Z,29.63
2023-02-23T17:43:38.566Z,29.87
2023-02-23T17:46:08.850Z,30.30
2023-02-23T17:48:37.388Z,24.40
2023-02-23T17:51:09.005Z,32.70
2023-02-23T17:53:38.035Z,30.43
2023-02-23T17:56:07.280Z,38.27
2023-02-23T17:58:35.895Z,30.60
2023-02-23T18:01:06.153Z,30.83
2023-02-23T18:03:37.831Z,35.40
2023-02-23T18:06:08.476Z,30.93
2023-02-23T18:08:37.629Z,27.20
2023-02-23T18:11:06.359Z,31.33
2023-02-23T18:13:35.529Z,31.40
2023-02-23T18:16:06.250Z,40.13
2023-02-23T18:18:36.908Z,30.43
2023-02-23T18:21:05.665Z,32.67
2023-02-23T18:23:35.901Z,32.03
2023-02-23T18:26:08.199Z,29.87
2023-02-23T18:28:37.324Z,34.10
2023-02-23T18:31:05.912Z,40.93
2023-02-23T18:33:36.558Z,32.43
2023-02-23T18:36:14.391Z,27.93
2023-02-23T18:38:42.892Z,36.83
2023-02-23T18:41:11.649Z,36.27
2023-02-23T18:43:40.560Z,32.90
2023-02-23T18:46:09.594Z,41.27
2023-02-23T18:48:39.793Z,28.50
2023-02-23T18:51:12.421Z,35.37
2023-02-23T18:53:42.339Z,38.67
2023-02-23T18:56:13.203Z,37.60
2023-02-23T18:58:42.861Z,41.80
2023-02-23T19:01:18.047Z,34.73
2023-02-23T19:03:48.528Z,31.63
2023-02-23T19:06:18.135Z,31.07
2023-02-23T19:08:54.153Z,38.70
2023-02-23T19:11:24.412Z,43.90
2023-02-23T19:13:53.360Z,32.67
2023-02-23T19:16:22.235Z,37.47
2023-02-23T19:18:52.173Z,34.63
2023-02-23T19:21:22.759Z,35.57
2023-02-23T19:23:51.784Z,39.30
2023-02-23T19:26:21.406Z,32.23
2023-02-23T19:28:50.103Z,33.87
2023-02-23T19:31:21.026Z,40.23
2023-02-23T19:33:51.655Z,35.33
2023-02-23T19:36:29.389Z,37.83
2023-02-23T19:39:05.730Z,38.80
2023-02-23T19:41:35.164Z,32.90
2023-02-23T19:44:03.881Z,31.00
2023-02-23T19:46:32.077Z,39.23
2023-02-23T19:49:02.100Z,36.63
2023-02-23T19:51:30.808Z,35.93
2023-02-23T19:54:00.098Z,35.63
2023-02-23T19:56:29.806Z,34.80
2023-02-23T19:59:00.885Z,39.97
2023-02-23T20:01:29.977Z,33.83
2023-02-23T20:04:02.196Z,33.10
2023-02-23T20:06:34.600Z,38.33
2023-02-23T20:09:05.683Z,36.60
2023-02-23T20:11:34.216Z,36.67
2023-02-23T20:14:04.315Z,38.80
2023-02-23T20:16:34.110Z,35.50
2023-02-23T20:19:05.552Z,40.97
2023-02-23T20:21:36.698Z,41.00
2023-02-23T20:24:06.451Z,40.53
2023-02-23T20:26:37.072Z,34.17
2023-02-23T20:29:11.144Z,49.27
2023-02-23T20:31:44.917Z,71.47
2023-02-23T20:34:13.911Z,73.57
2023-02-23T20:36:43.781Z,76.60
2023-02-23T20:39:14.476Z,63.30
2023-02-23T20:41:44.138Z,71.00
2023-02-23T20:44:13.441Z,76.03
2023-02-23T20:46:42.932Z,64.67
2023-02-23T20:49:11.997Z,59.10
2023-02-23T20:51:41.504Z,53.43
2023-02-23T20:54:12.951Z,53.07
2023-02-23T20:56:42.264Z,47.60
2023-02-23T20:59:11.957Z,46.47
2023-02-23T21:01:41.576Z,45.80
2023-02-23T21:04:12.980Z,45.87
2023-02-23T21:06:41.478Z,36.40
2023-02-23T21:09:17.960Z,47.13
2023-02-23T21:11:48.154Z,38.00
2023-02-23T21:14:17.537Z,47.60
2023-02-23T21:16:46.594Z,38.92
2023-02-23T21:19:18.679Z,41.47
2023-02-23T21:21:49.253Z,39.40
2023-02-23T21:24:20.947Z,34.83
2023-02-23T21:26:49.236Z,36.25
2023-02-23T21:29:18.155Z,31.42
2023-02-23T21:31:48.149Z,38.10
2023-02-23T21:34:19.659Z,38.33
2023-02-23T21:36:49.909Z,31.55
2023-02-23T21:39:21.565Z,35.28
2023-02-23T21:41:50.057Z,33.38
2023-02-23T21:44:18.635Z,45.58
2023-02-23T21:46:46.990Z,38.50
2023-02-23T21:49:17.089Z,38.58
2023-02-23T21:51:45.370Z,35.80
2023-02-23T21:54:13.788Z,43.85
2023-02-23T21:56:43.556Z,39.28
2023-02-23T21:59:19.578Z,34.40
2023-02-23T22:01:47.786Z,40.58
2023-02-23T22:04:16.294Z,40.38
2023-02-23T22:06:45.870Z,38.45
2023-02-23T22:09:15.504Z,35.08
2023-02-23T22:11:47.078Z,44.60
2023-02-23T22:14:18.000Z,41.33
2023-02-23T22:16:47.755Z,36.10
2023-02-23T22:19:17.013Z,37.17
2023-02-23T22:21:47.823Z,42.38
2023-02-23T22:24:17.071Z,37.88
2023-02-23T22:26:50.579Z,37.23
2023-02-23T22:29:19.183Z,31.23
2023-02-23T22:31:47.660Z,35.63
2023-02-23T22:34:16.436Z,36.67
2023-02-23T22:36:44.978Z,42.60
2023-02-23T22:39:18.655Z,39.50
2023-02-23T22:41:49.121Z,40.00
2023-02-23T22:44:20.003Z,42.70
2023-02-23T22:46:49.380Z,43.42
2023-02-23T22:49:19.957Z,43.30
2023-02-23T22:51:50.467Z,38.58
2023-02-23T22:54:20.697Z,49.00
2023-02-23T22:56:50.342Z,43.70
2023-02-23T22:59:20.395Z,45.53
2023-02-23T23:01:50.372Z,35.03
2023-02-23T23:04:22.063Z,35.75
2023-02-23T23:06:50.838Z,41.63
2023-02-23T23:09:21.127Z,38.60
2023-02-23T23:11:51.839Z,37.42
2023-02-23T23:14:20.459Z,47.13
2023-02-23T23:16:49.789Z,49.40
2023-02-23T23:19:24.026Z,37.67
2023-02-23T23:21:55.269Z,44.13
2023-02-23T23:24:25.188Z,36.28
2023-02-23T23:26:56.326Z,42.40
2023-02-23T23:29:25.798Z,43.85
2023-02-23T23:31:57.211Z,40.80
2023-02-23T23:34:26.216Z,39.63
2023-02-23T23:36:55.421Z,40.70
2023-02-23T23:39:26.042Z,37.95
2023-02-23T23:41:56.006Z,46.78
2023-02-23T23:44:29.183Z,38.47
2023-02-23T23:46:58.512Z,48.17
2023-02-23T23:49:27.302Z,40.72
2023-02-23T23:51:57.126Z,38.58
2023-02-23T23:54:28.210Z,40.90
2023-02-23T23:56:58.630Z,42.03
2023-02-23T23:59:28.246Z,40.08
